METAR - Ísland

Uppfært síðast 01.10.2022 - kl. 02:23

SIGMET síðustu 6 klst.

Engin SIGMET skeyti bárust síðustu 6 klst.

METAR síðustu 3 klst

Frá og með 1. október munu brautarskilyrði ekki birtast í METAR skeytum.
Í staðinn mun ISAVIA gefa út SNOWTAM á síðunni SNOWTAM | Isavia.

Flugv.TímiSkeyti
BIAR2022-10-01 02.00METAR BIAR 010200Z 35015KT 9999 -RA FEW024 BKN042 OVC048 08/06 Q0966
BIAR2022-10-01 01.00METAR BIAR 010100Z 34012KT 9999 -RA OVC029 08/06 Q0967
BIAR2022-10-01 00.00METAR BIAR 010000Z 33010KT 9000 -RA BKN020 BKN024 OVC029 08/06 Q0968
BIEG2022-10-01 02.00METAR BIEG 010200Z 35011KT 9999 FEW007 SCT014 07/06 Q0958
BIEG2022-10-01 01.00METAR BIEG 010100Z 36016KT 9999 FEW007 SCT050 07/06 Q0959
BIEG2022-10-01 00.00METAR BIEG 010000Z 36019KT 9999 -RA FEW006 SCT048 OVC060 07/06 Q0960
BIKF2022-10-01 02.00METAR BIKF 010200Z 35019KT 9999 VCSH BKN011 BKN100 08/06 Q0969
BIKF2022-10-01 01.30METAR BIKF 010130Z 36017KT 9999 -RA BKN012 BKN140 08/06 Q0969
BIKF2022-10-01 01.00METAR BIKF 010100Z 36017KT 9999 -DZ BKN014 BKN170 08/06 Q0969
BIKF2022-10-01 00.30METAR BIKF 010030Z 36015KT 9999 SCT014 SCT080 BKN210 08/06 Q0969
BIKF2022-10-01 00.00METAR BIKF 010000Z 36014KT 9999 FEW010 SCT080 BKN210 07/06 Q0969
BIKF2022-09-30 23.30METAR BIKF 302330Z 34013KT CAVOK 07/06 Q0969
BIRK2022-10-01 02.00METAR BIRK 010200Z 36014KT 9999 FEW022 BKN086 09/05 Q0968
BIRK2022-10-01 01.00METAR BIRK 010100Z 35013KT 9999 SCT035 BKN098 09/05 Q0968
BIRK2022-10-01 00.00METAR BIRK 010000Z 35011KT 9999 SCT029 BKN150 09/05 Q0968

Textaspár eru skrifaðar af vakthafandi veðurfræðingi á Veðurstofu Íslands.




Aðrir tengdir vefir



Þetta vefsvæði byggir á Eplica